Jerome, Michigan
Current Conditions -  °F | °C
As of 11:55 PM on Saturday 20 Dec 2014 (Local Time) from KJYM Reporting Station
Haze Haze  
Wind Chill: 26°   Ceiling: 3000
Heat Index: 26°   Visibility: 5mi
Dew Point: 25°   Wind: 0mph
Humidity: 94%   Direction: NA
Pressure: 30.25"   Gusts: NA
Location:  42.03°N, 84.47°W
Report Text: KJYM 210455Z AUTO 00000KT 5SM BR OVC030 M03/M04 A3025 RMK AO2 T10321040
Loading
Personal Weather Stations






























Interactive Weather Map New forecast layout! Learn more

10-Day Weather Forecast

Advertisements
Track Severe Weather on mobile